Time;durP1;ratioP1;P1;durP2;ratioP2;P2;SDS_P1;SDS_P2;PMS_P1;PMS_P2;Temp;Humidity;BMP_temperature;BMP_pressure;BME280_temperature;BME280_humidity;BME280_pressure;Samples;Min_cycle;Max_cycle;Signal;HPM_P1;HPM_P2
2024/03/01 00:01:40;;;;;;;5.40;3.17;;;1.80;99.90;;;2.47;100.00;97088.91;4984547;28;20573;-78
2024/03/01 00:04:10;;;;;;;8.27;4.43;;;1.80;99.90;;;2.42;100.00;97090.38;4986055;28;20859;-78
2024/03/01 00:06:39;;;;;;;5.30;3.27;;;1.70;99.90;;;2.50;100.00;97092.94;4983795;28;20878;-78
2024/03/01 00:09:07;;;;;;;5.90;3.90;;;1.80;99.90;;;2.53;100.00;97090.06;4983407;28;20462;-78
2024/03/01 00:11:36;;;;;;;7.63;3.67;;;1.80;99.90;;;2.51;100.00;97095.38;4980609;28;20231;-78
2024/03/01 00:14:04;;;;;;;6.83;4.23;;;1.70;99.90;;;2.43;100.00;97090.19;4981107;28;20216;-77
2024/03/01 00:16:33;;;;;;;5.20;4.03;;;1.80;99.90;;;2.45;100.00;97088.28;4981664;28;21763;-78
2024/03/01 00:19:01;;;;;;;6.23;4.03;;;1.70;99.90;;;2.49;100.00;97081.03;4981384;28;21067;-78
2024/03/01 00:21:31;;;;;;;5.80;3.70;;;1.80;99.90;;;2.47;100.00;97086.34;4979548;28;20460;-78
2024/03/01 00:24:00;;;;;;;5.83;3.93;;;1.70;99.90;;;2.42;100.00;97087.81;4982043;28;20460;-78
2024/03/01 00:26:28;;;;;;;7.10;4.15;;;1.70;99.90;;;2.44;100.00;97075.53;4982325;28;20467;-78
2024/03/01 00:28:56;;;;;;;7.00;4.50;;;1.70;99.90;;;2.33;100.00;97081.81;4980545;28;20205;-78
2024/03/01 00:31:25;;;;;;;5.00;3.75;;;1.70;99.90;;;2.36;100.00;97071.19;4981441;28;20537;-78
2024/03/01 00:33:53;;;;;;;5.70;3.33;;;1.70;99.90;;;2.49;100.00;97075.88;4980395;28;20754;-78
2024/03/01 00:36:22;;;;;;;5.93;3.00;;;1.70;99.90;;;2.57;100.00;97057.03;4981413;28;20576;-78
2024/03/01 00:38:52;;;;;;;4.43;2.90;;;1.80;99.90;;;2.59;100.00;97062.81;4981323;28;21066;-78
2024/03/01 00:41:20;;;;;;;6.63;4.00;;;1.90;99.90;;;2.64;100.00;97055.41;4980699;28;20504;-78
2024/03/01 00:43:49;;;;;;;6.27;3.60;;;1.90;99.90;;;2.58;100.00;97053.44;4982260;28;20482;-78
2024/03/01 00:46:18;;;;;;;4.80;3.40;;;1.90;99.90;;;2.45;100.00;97054.75;4982367;28;20464;-78
2024/03/01 00:48:48;;;;;;;8.80;3.50;;;1.80;99.90;;;2.47;100.00;97050.22;4984760;28;20468;-78
2024/03/01 00:51:16;;;;;;;7.20;3.20;;;1.80;99.90;;;2.51;100.00;97051.53;4983333;28;20488;-78
2024/03/01 00:53:45;;;;;;;9.03;3.67;;;1.80;99.90;;;2.52;100.00;97054.91;4984237;28;20958;-78
2024/03/01 00:56:15;;;;;;;6.17;3.83;;;1.80;99.90;;;2.61;100.00;97048.78;4983665;28;20481;-78
2024/03/01 00:58:43;;;;;;;8.27;3.75;;;1.90;99.90;;;2.60;100.00;97047.19;4985719;28;20541;-78
2024/03/01 01:01:12;;;;;;;8.30;4.53;;;2.00;99.90;;;2.72;100.00;97042.47;4984650;28;20205;-78
2024/03/01 01:03:41;;;;;;;5.37;4.03;;;2.00;99.90;;;2.78;100.00;97046.97;4985743;28;20838;-78
2024/03/01 01:06:10;;;;;;;5.50;3.40;;;2.10;99.90;;;2.85;100.00;97053.09;4983099;28;20598;-78
2024/03/01 01:08:38;;;;;;;5.77;3.50;;;2.10;99.90;;;2.88;100.00;97055.38;4981049;28;20264;-78
2024/03/01 01:11:06;;;;;;;6.17;4.30;;;2.10;99.90;;;2.91;100.00;97052.47;4980228;28;20456;-78
2024/03/01 01:13:36;;;;;;;6.60;4.10;;;2.20;99.90;;;2.90;100.00;97049.09;4980192;28;20526;-78
2024/03/01 01:16:06;;;;;;;5.77;3.83;;;2.20;99.90;;;2.86;100.00;97057.31;4979849;28;20475;-78
2024/03/01 01:18:35;;;;;;;11.15;4.72;;;2.20;99.90;;;2.78;100.00;97059.88;4979859;28;20691;-78
2024/03/01 01:21:03;;;;;;;5.67;4.23;;;2.10;99.90;;;2.79;100.00;97049.41;4981479;28;20202;-78
2024/03/01 01:23:32;;;;;;;16.70;4.10;;;2.10;99.90;;;2.94;100.00;97049.56;4981179;28;20468;-78
2024/03/01 01:26:00;;;;;;;7.80;3.70;;;2.30;99.90;;;2.98;100.00;97041.34;4980054;28;20464;-78
2024/03/01 01:28:29;;;;;;;5.97;3.73;;;2.30;99.90;;;3.10;100.00;97054.69;4980382;28;21249;-78
2024/03/01 01:30:59;;;;;;;10.40;4.70;;;2.40;99.90;;;3.06;100.00;97061.16;4980397;28;20499;-78
2024/03/01 01:33:27;;;;;;;6.35;4.00;;;2.30;99.90;;;3.08;100.00;97055.81;4979316;28;20521;-78
2024/03/01 01:35:56;;;;;;;9.20;3.93;;;2.40;99.90;;;3.03;100.00;97053.72;4979540;28;20200;-78
2024/03/01 01:38:24;;;;;;;9.70;4.77;;;2.30;99.90;;;3.07;100.00;97047.28;4981406;28;21027;-78
2024/03/01 01:40:53;;;;;;;4.40;3.60;;;2.40;99.90;;;3.11;100.00;97045.16;4980889;28;20463;-78
2024/03/01 01:43:21;;;;;;;11.33;4.53;;;2.40;99.90;;;3.19;100.00;97034.81;4982647;28;20478;-79
2024/03/01 01:45:50;;;;;;;8.35;3.83;;;2.40;99.90;;;3.19;100.00;97029.66;4980803;28;20914;-79
2024/03/01 01:48:20;;;;;;;8.73;4.60;;;2.40;99.90;;;3.18;100.00;97036.59;4979779;28;20755;-78
2024/03/01 01:50:48;;;;;;;7.27;4.00;;;2.50;99.90;;;3.15;100.00;97031.75;4979529;28;21121;-78
2024/03/01 01:53:19;;;;;;;6.35;4.07;;;2.40;99.90;;;3.16;100.00;97030.78;4980515;28;20494;-78
2024/03/01 01:55:55;;;;;;;7.23;3.87;;;2.40;99.90;;;3.22;100.00;97022.38;4979782;28;20205;-78
2024/03/01 01:58:24;;;;;;;6.33;4.20;;;2.50;99.90;;;3.24;100.00;97025.59;4983407;28;20861;-78
2024/03/01 02:00:53;;;;;;;8.23;4.50;;;2.50;99.90;;;3.25;100.00;97014.31;4982823;28;20973;-78
2024/03/01 02:03:23;;;;;;;7.63;4.00;;;2.50;99.90;;;3.22;100.00;97011.25;4984277;28;20502;-78
2024/03/01 02:05:52;;;;;;;5.53;4.40;;;2.50;99.90;;;3.21;100.00;97018.19;4983955;28;20461;-78
2024/03/01 02:08:21;;;;;;;8.00;3.80;;;2.50;99.90;;;3.23;100.00;97003.31;4983589;28;20460;-78
2024/03/01 02:10:50;;;;;;;8.60;3.50;;;2.50;99.90;;;3.25;100.00;97003.16;4983970;28;20512;-78
2024/03/01 02:13:20;;;;;;;9.87;4.77;;;2.50;99.90;;;3.28;100.00;97005.41;4983796;28;20565;-78
2024/03/01 02:15:51;;;;;;;4.83;3.40;;;2.50;99.90;;;3.29;100.00;97007.84;4982138;28;20555;-79
2024/03/01 02:18:22;;;;;;;6.13;3.40;;;2.60;99.90;;;3.33;100.00;96997.97;4984114;28;20608;-78
2024/03/01 02:21:07;;;;;;;6.30;4.00;;;2.60;99.90;;;3.29;100.00;97002.66;4983588;28;20460;-78
2024/03/01 02:23:37;;;;;;;11.20;3.87;;;2.50;99.90;;;3.26;100.00;96995.25;4982774;28;20483;-78
2024/03/01 02:26:06;;;;;;;5.83;4.13;;;2.50;99.90;;;3.23;100.00;96987.81;4984435;28;20467;-78
2024/03/01 02:28:44;;;;;;;5.00;3.50;;;2.50;99.90;;;3.23;100.00;96985.22;4982418;28;20460;-78
2024/03/01 02:31:13;;;;;;;6.97;3.97;;;2.50;99.90;;;3.23;100.00;96982.66;4984255;28;20500;-78
2024/03/01 02:33:42;;;;;;;4.97;3.60;;;2.50;99.90;;;3.20;100.00;96988.16;4983666;28;21018;-78
2024/03/01 02:36:12;;;;;;;8.00;4.27;;;2.40;99.90;;;3.21;100.00;96984.59;4984345;28;20970;-78
2024/03/01 02:38:42;;;;;;;7.10;3.73;;;2.40;99.90;;;3.17;100.00;96978.16;4982810;28;20518;-79
2024/03/01 02:41:10;;;;;;;7.00;3.90;;;2.40;99.90;;;3.23;100.00;96963.78;4988898;28;20478;-78
2024/03/01 02:43:38;;;;;;;6.17;3.90;;;2.50;99.90;;;3.30;100.00;96965.50;4988765;28;20950;-78
2024/03/01 02:46:07;;;;;;;7.10;4.07;;;2.50;99.90;;;3.34;100.00;96961.63;4988912;28;20468;-78
2024/03/01 02:48:36;;;;;;;8.40;3.70;;;2.60;99.90;;;3.35;100.00;96955.50;4987930;28;20533;-78
2024/03/01 02:51:05;;;;;;;6.90;4.10;;;2.60;99.90;;;3.44;100.00;96954.47;4988683;28;20868;-79
2024/03/01 02:53:33;;;;;;;15.33;3.90;;;2.70;99.90;;;3.45;100.00;96955.28;4987694;28;20499;-78
2024/03/01 02:56:03;;;;;;;7.50;4.40;;;2.70;99.90;;;3.45;100.00;96953.50;4987102;28;20966;-78
2024/03/01 02:58:32;;;;;;;9.03;3.80;;;2.60;99.90;;;3.47;100.00;96958.50;4987058;28;20464;-78
2024/03/01 03:01:00;;;;;;;7.77;3.73;;;2.80;99.90;;;3.46;100.00;96959.47;4983317;28;20472;-78
2024/03/01 03:03:29;;;;;;;7.75;4.20;;;2.70;99.90;;;3.46;100.00;96952.53;4984426;28;20541;-78
2024/03/01 03:05:57;;;;;;;6.80;4.30;;;2.70;99.90;;;3.46;100.00;96956.88;4986966;28;20213;-78
2024/03/01 03:08:25;;;;;;;6.77;4.40;;;2.70;99.90;;;3.54;100.00;96956.81;4986273;28;20882;-79
2024/03/01 03:10:54;;;;;;;6.73;4.17;;;2.80;99.90;;;3.55;100.00;96961.84;4985256;28;20460;-78
2024/03/01 03:13:24;;;;;;;8.90;4.90;;;2.80;99.90;;;3.59;100.00;96959.72;4987051;28;20542;-78
2024/03/01 03:15:52;;;;;;;7.03;4.13;;;2.80;99.90;;;3.60;100.00;96953.59;4987162;28;20567;-78
2024/03/01 03:18:21;;;;;;;6.53;4.32;;;2.80;99.90;;;3.62;100.00;96955.97;4987274;28;20462;-78
2024/03/01 03:20:49;;;;;;;10.48;4.30;;;2.90;99.90;;;3.69;100.00;96944.00;4987020;28;20672;-78
2024/03/01 03:23:18;;;;;;;8.30;4.50;;;2.90;99.90;;;3.69;100.00;96946.56;4985495;28;20599;-78
2024/03/01 03:25:46;;;;;;;9.10;3.80;;;2.90;99.90;;;3.65;100.00;96948.69;4987567;28;20979;-79
2024/03/01 03:28:19;;;;;;;8.20;4.37;;;2.90;99.90;;;3.68;100.00;96955.31;4985469;28;20971;-79
2024/03/01 03:30:49;;;;;;;6.47;4.20;;;2.90;99.90;;;3.66;100.00;96955.47;4987133;28;20496;-79
2024/03/01 03:33:18;;;;;;;8.43;4.67;;;2.90;99.90;;;3.68;100.00;96944.97;4987067;28;20587;-78
2024/03/01 03:35:46;;;;;;;6.90;4.37;;;2.90;99.90;;;3.70;100.00;96950.78;4987483;28;20557;-78
2024/03/01 03:38:15;;;;;;;7.00;4.77;;;3.00;99.90;;;3.70;100.00;96951.59;4988377;28;21058;-78
2024/03/01 03:40:44;;;;;;;6.43;4.00;;;3.00;99.90;;;3.72;100.00;96964.31;4989081;28;21181;-79
2024/03/01 03:43:13;;;;;;;9.10;4.53;;;3.00;99.90;;;3.74;100.00;96955.44;4988318;28;21109;-78
2024/03/01 03:45:41;;;;;;;8.10;5.20;;;2.90;99.90;;;3.79;100.00;96963.47;4987972;28;20462;-78
2024/03/01 03:48:11;;;;;;;5.43;4.27;;;3.00;99.90;;;3.77;100.00;96972.38;4988001;28;20478;-78
2024/03/01 03:50:40;;;;;;;9.20;5.13;;;3.00;99.90;;;3.81;100.00;96976.25;4988577;28;20464;-78
2024/03/01 03:53:08;;;;;;;7.03;4.70;;;3.10;99.90;;;3.82;100.00;96972.66;4988491;28;20494;-78
2024/03/01 03:55:36;;;;;;;8.48;4.90;;;3.10;99.90;;;3.86;100.00;96976.50;4985656;28;20671;-78
2024/03/01 03:58:05;;;;;;;7.50;4.70;;;3.10;99.90;;;3.89;100.00;96973.59;4986260;28;20295;-78
2024/03/01 04:00:34;;;;;;;9.82;5.45;;;3.10;99.90;;;3.91;100.00;96966.47;4987493;28;20498;-79
2024/03/01 04:03:03;;;;;;;8.57;4.90;;;3.20;99.90;;;3.90;100.00;96962.28;4986002;28;20283;-78
2024/03/01 04:05:33;;;;;;;9.53;4.97;;;3.10;99.90;;;3.90;100.00;96959.69;4985319;28;20474;-78
2024/03/01 04:08:01;;;;;;;10.13;4.90;;;3.20;99.90;;;3.94;100.00;96960.97;4984708;28;20463;-78
2024/03/01 04:10:30;;;;;;;8.68;4.68;;;3.20;99.90;;;3.97;100.00;96956.25;4986264;28;21233;-78
2024/03/01 04:12:59;;;;;;;8.27;4.68;;;3.20;99.90;;;4.00;100.00;96957.69;4985271;28;20216;-78
2024/03/01 04:15:28;;;;;;;7.10;4.90;;;3.30;99.90;;;4.04;100.00;96962.34;4985467;28;20562;-78
2024/03/01 04:17:56;;;;;;;10.87;5.60;;;3.30;99.90;;;4.05;100.00;96955.38;4985846;28;20464;-78
2024/03/01 04:20:24;;;;;;;9.43;5.70;;;3.30;99.90;;;4.10;100.00;96963.41;4985483;28;20466;-78
2024/03/01 04:22:54;;;;;;;9.00;5.60;;;3.30;99.90;;;4.13;100.00;96957.91;4984859;28;20959;-78
2024/03/01 04:25:24;;;;;;;9.30;5.90;;;3.30;99.90;;;4.12;100.00;96964.06;4986931;28;20285;-78
2024/03/01 04:27:53;;;;;;;12.40;5.80;;;3.40;99.90;;;4.10;100.00;96960.81;4986133;28;21033;-78
2024/03/01 04:30:23;;;;;;;11.40;6.53;;;3.30;99.90;;;4.13;100.00;96968.25;4984271;28;20482;-78
2024/03/01 04:32:51;;;;;;;8.63;5.83;;;3.30;99.90;;;4.12;100.00;96973.59;4988673;28;20797;-79
2024/03/01 04:35:20;;;;;;;13.50;6.03;;;3.30;99.90;;;4.18;100.00;96973.72;4988972;28;20843;-78
2024/03/01 04:37:49;;;;;;;9.87;5.93;;;3.40;99.90;;;4.20;100.00;96971.75;4989635;28;20212;-78
2024/03/01 04:40:18;;;;;;;12.53;6.47;;;3.50;99.90;;;4.24;100.00;96983.34;4989690;28;20471;-78
2024/03/01 04:42:48;;;;;;;12.50;6.50;;;3.50;99.90;;;4.24;100.00;96983.34;4990119;28;20514;-78
2024/03/01 04:45:17;;;;;;;11.93;6.55;;;3.50;99.90;;;4.25;100.00;96979.81;4989701;28;20510;-78
2024/03/01 04:47:45;;;;;;;13.20;6.03;;;3.50;99.90;;;4.28;100.00;96991.56;4989754;28;20203;-78
2024/03/01 04:50:14;;;;;;;13.40;6.73;;;3.60;99.90;;;4.27;100.00;96993.34;4984856;28;21911;-78
2024/03/01 04:52:42;;;;;;;10.83;6.77;;;3.50;99.90;;;4.28;100.00;96987.22;4984654;28;20979;-79
2024/03/01 04:55:11;;;;;;;9.70;5.90;;;3.60;99.90;;;4.32;100.00;96983.31;4985329;28;20922;-78
2024/03/01 04:57:41;;;;;;;11.57;6.57;;;3.60;99.90;;;4.35;100.00;96988.13;4984275;28;20471;-79
2024/03/01 05:00:13;;;;;;;8.70;6.00;;;3.60;99.90;;;4.35;100.00;96987.31;4985644;28;20468;-78
2024/03/01 05:02:42;;;;;;;14.70;6.90;;;3.50;99.90;;;4.37;100.00;96986.16;4983804;28;20463;-78
2024/03/01 05:05:11;;;;;;;14.27;7.17;;;3.60;99.90;;;4.40;100.00;96982.44;4984571;28;20472;-78
2024/03/01 05:07:39;;;;;;;11.37;6.30;;;3.60;99.90;;;4.39;100.00;96981.63;4983715;28;20951;-78
2024/03/01 05:10:09;;;;;;;10.60;6.77;;;3.60;99.90;;;4.42;100.00;96986.44;4984423;28;21547;-78
2024/03/01 05:12:41;;;;;;;14.93;6.57;;;3.70;99.90;;;4.43;100.00;96982.91;4985669;28;21145;-78
2024/03/01 05:15:12;;;;;;;11.63;7.30;;;3.60;99.90;;;4.44;100.00;96983.69;4983257;28;20346;-79
2024/03/01 05:17:43;;;;;;;13.67;7.60;;;3.70;99.90;;;4.48;100.00;96985.75;4984317;28;20458;-78
2024/03/01 05:20:14;;;;;;;10.80;8.30;;;3.70;99.90;;;4.50;100.00;96977.81;4984996;28;20885;-78
2024/03/01 05:22:44;;;;;;;13.47;7.07;;;3.70;99.90;;;4.55;100.00;96975.50;4984205;28;20467;-78
2024/03/01 05:25:16;;;;;;;15.13;7.57;;;3.70;99.90;;;4.57;100.00;96978.72;4987877;28;20666;-78
2024/03/01 05:27:49;;;;;;;13.20;7.33;;;3.80;99.90;;;4.54;100.00;96982.47;4988245;28;20507;-78
2024/03/01 05:30:19;;;;;;;10.18;6.95;;;3.80;99.90;;;4.57;100.00;96976.94;4989022;28;20464;-78
2024/03/01 05:33:08;;;;;;;11.60;6.67;;;3.80;99.90;;;4.61;100.00;96971.41;4990173;28;20312;-78
2024/03/01 05:35:38;;;;;;;13.98;7.90;;;3.80;99.90;;;4.62;100.00;96975.63;4992115;28;20857;-78
2024/03/01 05:38:06;;;;;;;12.85;7.40;;;3.80;99.90;;;4.62;100.00;96968.63;4992474;28;20276;-78
2024/03/01 05:40:37;;;;;;;16.25;7.30;;;3.80;99.90;;;4.65;100.00;96973.47;4991953;28;20275;-78
2024/03/01 05:43:22;;;;;;;23.27;7.50;;;3.80;99.90;;;4.68;100.00;96980.09;4992111;28;20205;-78
2024/03/01 05:45:52;;;;;;;13.07;6.67;;;3.90;99.90;;;4.68;100.00;96974.91;4991380;28;20487;-78
2024/03/01 05:48:23;;;;;;;10.80;6.83;;;3.90;99.90;;;4.70;100.00;96983.28;4989682;28;20893;-78
2024/03/01 05:50:52;;;;;;;11.23;6.67;;;3.90;99.90;;;4.70;100.00;96986.69;4987002;28;20901;-78
2024/03/01 05:53:22;;;;;;;14.50;8.07;;;3.90;99.90;;;4.73;100.00;96982.94;4987993;28;20470;-83
2024/03/01 05:55:51;;;;;;;12.10;7.13;;;4.00;99.90;;;4.74;100.00;96987.94;4985556;28;20578;-79
2024/03/01 05:58:25;;;;;;;16.13;7.77;;;3.90;99.90;;;4.77;100.00;96985.00;4985907;28;20476;-79
2024/03/01 06:00:54;;;;;;;14.45;8.20;;;4.00;99.90;;;4.77;100.00;96984.19;4983737;28;20469;-79
2024/03/01 06:03:23;;;;;;;13.20;8.27;;;4.00;99.90;;;4.78;100.00;96989.22;4986284;28;20594;-78
2024/03/01 06:05:52;;;;;;;14.23;7.27;;;4.00;99.90;;;4.79;100.00;96990.03;4987093;28;20463;-78
2024/03/01 06:08:20;;;;;;;14.73;7.77;;;4.00;99.90;;;4.82;100.00;96989.66;4987020;28;20462;-82
2024/03/01 06:10:48;;;;;;;16.90;8.13;;;4.00;99.90;;;4.81;100.00;96990.63;4987284;28;20460;-81
2024/03/01 06:13:17;;;;;;;17.60;8.43;;;4.00;99.90;;;4.84;100.00;96985.09;4980765;28;20480;-80
2024/03/01 06:15:48;;;;;;;15.30;8.50;;;4.10;99.90;;;4.86;100.00;96988.34;4985588;28;21105;-79
2024/03/01 06:18:17;;;;;;;16.00;8.85;;;4.10;99.90;;;4.90;100.00;96984.38;4987746;28;20515;-80
2024/03/01 06:20:46;;;;;;;18.70;8.17;;;4.10;99.90;;;4.96;100.00;96994.06;4987366;28;20201;-79
2024/03/01 06:23:15;;;;;;;12.97;8.40;;;4.20;99.90;;;4.99;100.00;96978.16;4988027;28;20515;-79
2024/03/01 06:25:43;;;;;;;15.50;9.20;;;4.10;99.90;;;4.97;100.00;96985.28;4990110;28;20480;-80
2024/03/01 06:28:12;;;;;;;17.23;8.90;;;4.20;99.90;;;5.03;100.00;96987.19;4991639;28;20207;-79
2024/03/01 06:30:40;;;;;;;15.13;8.10;;;4.20;99.90;;;5.04;100.00;96981.00;4990870;28;20587;-79
2024/03/01 06:33:11;;;;;;;17.07;8.77;;;4.20;99.90;;;5.04;100.00;96981.81;4986110;28;20923;-80
2024/03/01 06:35:39;;;;;;;18.13;9.60;;;4.30;99.90;;;5.12;100.00;96973.16;4981978;28;20987;-80
2024/03/01 06:38:08;;;;;;;21.40;8.50;;;4.30;99.90;;;5.12;100.00;96980.91;4972485;28;20460;-84
2024/03/01 06:40:35;;;;;;;26.67;12.93;;;4.30;99.90;;;5.11;100.00;96984.47;4976983;28;20466;-80
2024/03/01 06:43:04;;;;;;;17.10;9.57;;;4.30;99.90;;;5.12;100.00;96978.31;4979140;28;20209;-79
2024/03/01 06:45:33;;;;;;;16.27;8.70;;;4.40;99.90;;;5.18;100.00;96981.97;4985225;28;20471;-79
2024/03/01 06:48:02;;;;;;;18.67;10.20;;;4.40;99.90;;;5.17;100.00;96977.78;4986832;28;20468;-80
2024/03/01 06:50:31;;;;;;;20.90;9.10;;;4.40;99.90;;;5.22;100.00;96985.81;4983076;28;20591;-79
2024/03/01 06:53:00;;;;;;;18.57;9.87;;;4.40;99.90;;;5.25;100.00;96998.41;4982175;28;21079;-79
2024/03/01 06:55:28;;;;;;;17.30;8.20;;;4.50;99.90;;;5.27;100.00;96992.09;4983266;28;20500;-79
2024/03/01 06:57:58;;;;;;;22.90;9.77;;;4.50;99.90;;;5.30;100.00;96991.72;4982505;28;20959;-80
2024/03/01 07:00:27;;;;;;;18.60;9.73;;;4.50;99.90;;;5.30;100.00;97004.69;4980645;28;20528;-80
2024/03/01 07:02:56;;;;;;;18.90;8.30;;;4.50;99.90;;;5.32;100.00;96994.94;4985533;28;20461;-79
2024/03/01 07:05:24;;;;;;;19.93;10.27;;;4.50;99.90;;;5.33;100.00;96998.34;4984130;28;20473;-79
2024/03/01 07:07:55;;;;;;;35.13;14.60;;;4.50;99.90;;;5.34;100.00;96998.16;4984450;28;20470;-80
2024/03/01 07:10:24;;;;;;;23.30;11.60;;;4.60;99.90;;;5.37;100.00;97002.19;4985174;28;20463;-80
2024/03/01 07:12:52;;;;;;;21.13;11.05;;;4.60;99.90;;;5.40;100.00;97002.63;4984419;28;20963;-80
2024/03/01 07:15:21;;;;;;;23.23;11.20;;;4.60;99.90;;;5.43;100.00;97007.44;4981080;28;20263;-80
2024/03/01 07:17:52;;;;;;;19.67;10.80;;;4.60;99.90;;;5.47;100.00;97008.69;4982679;28;20478;-80
2024/03/01 07:20:21;;;;;;;18.97;10.30;;;4.70;99.90;;;5.49;100.00;97017.06;4977460;28;20504;-80
2024/03/01 07:22:50;;;;;;;16.13;10.03;;;4.70;99.90;;;5.48;100.00;97018.06;4977187;28;20473;-79
2024/03/01 07:25:20;;;;;;;28.00;12.87;;;4.60;99.90;;;5.48;100.00;97005.09;4980600;28;20475;-85
2024/03/01 07:27:48;;;;;;;27.20;12.83;;;4.70;99.90;;;5.50;100.00;97010.13;4982130;28;20452;-80
2024/03/01 07:30:17;;;;;;;24.20;10.50;;;4.70;99.90;;;5.54;100.00;97008.78;4975106;28;20981;-80
2024/03/01 07:32:46;;;;;;;17.40;10.57;;;4.80;99.90;;;5.57;100.00;97008.41;4977026;28;20546;-80
2024/03/01 07:35:14;;;;;;;16.35;9.68;;;4.80;99.90;;;5.59;100.00;97006.41;4975845;28;20873;-80
2024/03/01 07:37:43;;;;;;;19.90;10.10;;;4.80;99.90;;;5.62;100.00;97005.28;4976044;28;20767;-80
2024/03/01 07:40:13;;;;;;;19.37;10.10;;;4.90;99.90;;;5.65;100.00;97003.13;4975546;28;20528;-80
2024/03/01 07:42:43;;;;;;;20.00;10.97;;;4.80;99.90;;;5.70;100.00;97007.75;4980949;28;20860;-80
2024/03/01 07:45:12;;;;;;;17.37;9.67;;;4.90;99.90;;;5.71;100.00;97009.38;4980748;28;20478;-80
2024/03/01 07:47:43;;;;;;;17.40;10.77;;;4.90;99.90;;;5.75;100.00;97006.22;4980655;28;20466;-80
2024/03/01 07:50:12;;;;;;;19.23;10.13;;;5.00;99.90;;;5.79;100.00;97007.47;4980353;28;20596;-80
2024/03/01 07:52:40;;;;;;;22.23;10.17;;;5.00;99.90;;;5.83;100.00;97013.09;4981170;28;20478;-80
2024/03/01 07:55:09;;;;;;;17.33;9.90;;;5.00;99.90;;;5.84;100.00;97017.28;4981378;28;20495;-80
2024/03/01 07:57:37;;;;;;;23.17;10.87;;;5.10;99.90;;;5.87;100.00;97011.75;4981061;28;20558;-80
2024/03/01 08:00:10;;;;;;;17.83;9.20;;;5.10;99.90;;;5.90;100.00;97008.81;4981002;28;20477;-80
2024/03/01 08:02:38;;;;;;;21.57;11.70;;;5.10;99.90;;;5.91;100.00;97005.22;4981419;28;21142;-80
2024/03/01 08:05:09;;;;;;;19.88;10.35;;;5.20;99.90;;;5.96;100.00;97010.69;4978455;28;20542;-80
2024/03/01 08:07:38;;;;;;;19.70;9.93;;;5.20;99.90;;;5.98;100.00;97006.09;4980245;28;20535;-80
2024/03/01 08:10:14;;;;;;;22.53;10.97;;;5.20;99.90;;;6.03;100.00;97014.16;4975701;28;20554;-80
2024/03/01 08:12:43;;;;;;;16.67;9.87;;;5.20;99.90;;;6.05;100.00;97028.53;4975339;28;20521;-79
2024/03/01 08:15:28;;;;;;;22.13;9.87;;;5.30;99.90;;;6.05;100.00;97015.56;4975542;28;20466;-80
2024/03/01 08:17:57;;;;;;;17.43;10.13;;;5.40;99.90;;;6.08;100.00;97012.59;4976987;28;21049;-79
2024/03/01 08:21:03;;;;;;;17.27;9.67;;;5.40;99.90;;;6.15;100.00;97014.44;4978057;28;20468;-80
2024/03/01 08:23:38;;;;;;;18.97;9.77;;;5.50;99.90;;;6.17;100.00;97010.69;4982628;28;20522;-85
2024/03/01 08:26:13;;;;;;;128.90;51.93;;;5.50;99.90;;;6.22;100.00;97013.53;4982221;28;20971;-80
2024/03/01 08:28:44;;;;;;;17.65;10.90;;;5.50;99.90;;;6.28;100.00;97015.38;4980713;28;21001;-80
2024/03/01 08:31:27;;;;;;;12.90;8.17;;;5.70;99.90;;;6.35;100.00;97026.63;4980126;28;20303;-80
2024/03/01 08:34:07;;;;;;;19.13;9.23;;;5.80;99.90;;;6.39;100.00;97038.25;4983744;28;20460;-81
2024/03/01 08:36:37;;;;;;;13.67;6.93;;;5.90;99.90;;;6.42;100.00;97050.88;4980368;28;20491;-80
2024/03/01 08:39:15;;;;;;;11.43;7.27;;;5.90;99.90;;;6.45;100.00;97053.13;4980171;28;20971;-80
2024/03/01 08:41:48;;;;;;;8.23;4.50;;;5.90;99.90;;;6.43;100.00;97041.28;4981789;28;20582;-80
2024/03/01 08:44:53;;;;;;;7.77;4.37;;;5.90;99.90;;;6.45;100.00;97045.31;4981732;28;21009;-80
2024/03/01 08:47:31;;;;;;;11.60;3.30;;;5.90;99.90;;;6.47;100.00;97038.13;4981974;28;20552;-80
2024/03/01 08:50:42;;;;;;;3.50;2.90;;;5.90;99.90;;;6.50;100.00;97045.56;4980185;28;20459;-81
2024/03/01 08:53:57;;;;;;;3.37;2.20;;;5.90;99.90;;;6.54;100.00;97046.78;4983721;28;20475;-80
2024/03/01 08:56:36;;;;;;;2.23;2.00;;;5.90;99.90;;;6.60;100.00;97042.63;4976344;28;20488;-80
2024/03/01 08:59:44;;;;;;;3.00;2.37;;;6.00;99.90;;;6.61;100.00;97040.84;4975994;28;20479;-80
2024/03/01 09:02:52;;;;;;;1.93;1.77;;;6.10;99.90;;;6.57;100.00;97063.78;4966197;28;20503;-80
2024/03/01 09:05:21;;;;;;;3.25;1.70;;;6.00;99.90;;;6.59;100.00;97062.59;4975247;28;20464;-81
2024/03/01 09:07:50;;;;;;;1.67;1.57;;;6.10;99.90;;;6.58;100.00;97058.41;4971386;28;20243;-80
2024/03/01 09:10:29;;;;;;;2.80;1.60;;;6.10;99.90;;;6.62;100.00;97064.06;4975874;28;20495;-80
2024/03/01 09:12:58;;;;;;;2.17;1.60;;;6.10;99.90;;;6.63;100.00;97073.44;4974764;28;20467;-80
2024/03/01 09:15:28;;;;;;;1.60;1.37;;;6.10;99.90;;;6.67;100.00;97076.47;4970110;28;20472;-80
2024/03/01 09:17:58;;;;;;;1.70;1.60;;;6.10;99.90;;;6.70;100.00;97073.50;4975605;28;20555;-79
2024/03/01 09:20:35;;;;;;;3.20;1.50;;;6.10;99.90;;;6.72;100.00;97072.31;4985590;28;21003;-80
2024/03/01 09:23:08;;;;;;;3.10;1.93;;;6.20;99.90;;;6.76;100.00;97070.16;4984995;28;20463;-80
2024/03/01 09:26:02;;;;;;;1.50;1.30;;;6.20;99.90;;;6.73;100.00;97073.13;4981771;28;20468;-79
2024/03/01 09:28:31;;;;;;;2.43;1.60;;;6.20;99.90;;;6.77;100.00;97069.19;4955169;28;21383;-79
2024/03/01 09:31:00;;;;;;;2.00;1.40;;;6.30;99.90;;;6.77;100.00;97085.53;4973887;28;20577;-80
2024/03/01 09:33:31;;;;;;;1.40;1.30;;;6.20;99.90;;;6.81;100.00;97080.78;4980242;28;20460;-80
2024/03/01 09:35:59;;;;;;;1.10;1.00;;;6.20;99.90;;;6.84;100.00;97085.59;4975204;28;20502;-80
2024/03/01 09:38:28;;;;;;;1.40;1.20;;;6.30;99.90;;;6.82;100.00;97079.81;4971690;28;20471;-79
2024/03/01 09:41:44;;;;;;;1.93;1.33;;;6.20;99.90;;;6.87;100.00;97085.25;4975218;28;20514;-79
2024/03/01 09:44:30;;;;;;;1.40;1.10;;;6.20;99.90;;;6.95;100.00;97088.50;4983298;28;20475;-79
2024/03/01 09:47:18;;;;;;;1.13;1.03;;;6.30;99.90;;;6.98;100.00;97080.34;4986523;28;20456;-79
2024/03/01 09:50:11;;;;;;;1.20;1.10;;;6.40;99.90;;;7.04;100.00;97081.38;4985862;28;20791;-79
2024/03/01 09:52:52;;;;;;;1.47;1.23;;;6.40;99.90;;;7.07;100.00;97097.41;4986420;28;20521;-80
2024/03/01 09:55:37;;;;;;;1.30;1.20;;;6.50;99.90;;;7.11;100.00;97094.44;4985232;28;20463;-79
2024/03/01 09:58:20;;;;;;;2.07;1.30;;;6.50;99.90;;;7.09;100.00;97098.00;4986343;28;20497;-79
2024/03/01 10:01:06;;;;;;;1.10;1.00;;;6.40;99.90;;;7.11;100.00;97097.84;4985440;28;20474;-78
2024/03/01 10:03:55;;;;;;;1.20;1.10;;;6.50;99.90;;;7.11;100.00;97100.44;4986388;28;20232;-79
2024/03/01 10:06:59;;;;;;;1.17;1.07;;;6.50;99.90;;;7.16;100.00;97111.06;4987107;28;21002;-79
2024/03/01 10:10:00;;;;;;;1.70;1.10;;;6.60;99.90;;;7.18;100.00;97111.69;4985969;28;20482;-79
2024/03/01 10:12:43;;;;;;;1.30;1.20;;;6.70;99.90;;;7.13;100.00;97113.22;4985611;28;20538;-79
2024/03/01 10:15:29;;;;;;;1.57;1.47;;;6.70;99.90;;;7.16;100.00;97103.25;4983518;28;20851;-79
2024/03/01 10:18:26;;;;;;;1.30;1.20;;;6.60;99.90;;;7.19;100.00;97100.28;4986083;28;20484;-79
2024/03/01 10:21:09;;;;;;;9.20;1.70;;;6.70;99.90;;;7.23;100.00;97093.72;4992470;28;20963;-79
2024/03/01 10:23:53;;;;;;;2.20;1.60;;;6.60;99.90;;;7.24;100.00;97095.34;4993584;28;20500;-80
2024/03/01 10:26:28;;;;;;;1.35;1.25;;;6.60;99.90;;;7.33;100.00;97090.78;4992303;28;20208;-79
2024/03/01 10:29:21;;;;;;;1.90;1.70;;;6.70;99.90;;;7.39;100.00;97085.63;4991253;28;20206;-80
2024/03/01 10:32:10;;;;;;;2.23;1.67;;;6.70;99.90;;;7.45;100.00;97078.88;4989804;28;20539;-80
2024/03/01 10:34:53;;;;;;;1.77;1.63;;;6.70;99.90;;;7.50;100.00;97084.28;4988193;28;20791;-79
2024/03/01 10:37:35;;;;;;;2.97;1.90;;;6.70;99.90;;;7.54;100.00;97082.91;4988823;28;20502;-80
2024/03/01 10:40:17;;;;;;;2.27;1.73;;;6.80;99.90;;;7.57;100.00;97083.31;4989377;28;20209;-79
2024/03/01 10:42:56;;;;;;;2.90;2.20;;;6.90;99.90;;;7.59;100.00;97086.56;4989986;28;20549;-79
2024/03/01 10:45:37;;;;;;;2.07;1.90;;;7.10;99.90;;;7.66;100.00;97086.59;4989424;28;20463;-79